»·PEaware :: N2317R KAPA-KEGE

N2317R :: KAPA-KEGE

FLIGHT INFORMATION

Flight Status: Arrived
Operator: Privately registered:
United States
More flights under this callsign
Pilot: James W. (17580)
Aircraft: PILATUS PC-12 EAGLE
(PC12)
More flights by this aircraft type
Origin: KAPA Centennial
United States
Destination: KEGE Eagle Co Regl
United States
More flights between these airports :: More routes between these airports
Route: ROCKI3 RLG
File this flight plan on PilotEdge
Remarks:
Altitude:
(Current/Filed)
22,000ft
Speed:
(Current/Filed)
230kts
Departed: 15-Apr-18 11:28 AM
Arrived: 15-Apr-18 12:20 PM
Distance/Time
Traveled:
96nm/0:52
Distance/Time
To Go:
Arrived

Flight Plot

Page will automatically refresh every two minutes.


Map Options




Map Legend


Flown Route
Filed Route
Departure Airport
Arrival Airport
Navaid (VOR, NDB)
Fix

Horizontal Profiles

Position Reports

Time Latitude Longitude Heading Altitude Ground
Speed
15-Apr-18 11:11 39.578675 -104.848768 89 5886ft 0kts
15-Apr-18 11:12 39.578675 -104.848768 89 5886ft 0kts
15-Apr-18 11:13 39.578675 -104.848768 89 5886ft 0kts
15-Apr-18 11:14 39.578675 -104.848768 89 5886ft 0kts
15-Apr-18 11:15 39.578675 -104.848768 89 5886ft 0kts
15-Apr-18 11:16 39.578675 -104.848768 89 5886ft 0kts
15-Apr-18 11:17 39.578675 -104.848768 89 5886ft 0kts
15-Apr-18 11:18 39.578675 -104.848768 89 5886ft 0kts
15-Apr-18 11:19 39.578675 -104.848768 89 5886ft 0kts
15-Apr-18 11:20 39.578675 -104.848768 89 5886ft 0kts
15-Apr-18 11:21 39.578683 -104.848724 63 5886ft 0kts
15-Apr-18 11:22 39.578886 -104.848766 301 5886ft 0kts
15-Apr-18 11:23 39.578895 -104.848786 300 5886ft 1kts
15-Apr-18 11:24 39.582074 -104.849976 357 5886ft 19kts
15-Apr-18 11:25 39.584064 -104.850175 306 5886ft 0kts
15-Apr-18 11:26 39.584086 -104.850991 258 5886ft 0kts
15-Apr-18 11:27 39.568031 -104.850777 179 6131ft 124kts
15-Apr-18 11:28 39.534690 -104.849930 177 7854ft 122kts
15-Apr-18 11:29 39.491394 -104.848975 178 8004ft 180kts
15-Apr-18 11:30 39.444483 -104.849754 203 9009ft 154kts
15-Apr-18 11:31 39.448869 -104.892054 313 10214ft 146kts
15-Apr-18 11:32 39.476429 -104.928628 314 11422ft 146kts
15-Apr-18 11:33 39.504336 -104.965420 314 12620ft 145kts
15-Apr-18 11:34 39.531328 -105.001006 315 13998ft 139kts
15-Apr-18 11:35 39.556635 -105.034774 317 15434ft 121kts
15-Apr-18 11:36 39.580489 -105.066179 315 16795ft 138kts
15-Apr-18 11:37 39.602894 -105.095873 315 18285ft 141kts
15-Apr-18 11:38 39.629455 -105.130978 315 20118ft 135kts
15-Apr-18 11:39 39.658827 -105.170089 316 21971ft 132kts
15-Apr-18 11:40 39.690350 -105.211652 315 22002ft 186kts
15-Apr-18 11:41 39.728738 -105.262622 315 21997ft 208kts
15-Apr-18 11:42 39.769889 -105.317341 315 21996ft 216kts
15-Apr-18 11:43 39.804479 -105.363516 315 21995ft 218kts
15-Apr-18 11:44 39.846625 -105.419880 315 21978ft 219kts
15-Apr-18 11:45 39.889327 -105.476519 311 21967ft 222kts
15-Apr-18 11:46 39.932117 -105.534951 310 21966ft 224kts
15-Apr-18 11:47 39.974412 -105.594579 310 21965ft 225kts
15-Apr-18 11:48 40.015821 -105.653611 307 22045ft 227kts
15-Apr-18 11:49 40.027016 -105.731266 271 22058ft 237kts
15-Apr-18 11:50 40.024943 -105.815672 272 22052ft 232kts
15-Apr-18 11:51 40.022355 -105.899151 272 22052ft 231kts
15-Apr-18 11:52 40.019429 -105.982159 272 22052ft 230kts
15-Apr-18 11:53 40.016517 -106.065077 272 22051ft 230kts
15-Apr-18 11:54 40.013497 -106.146936 271 22019ft 231kts
15-Apr-18 11:55 40.010058 -106.230211 270 21976ft 231kts
15-Apr-18 11:56 40.007124 -106.313999 272 21516ft 239kts
15-Apr-18 11:57 40.003771 -106.403895 272 19847ft 255kts
15-Apr-18 11:58 39.979854 -106.485764 201 18223ft 279kts
15-Apr-18 11:59 39.908871 -106.494660 194 18015ft 235kts
15-Apr-18 12:00 39.848496 -106.511311 198 17128ft 228kts
15-Apr-18 12:01 39.786813 -106.534523 200 15571ft 234kts
15-Apr-18 12:02 39.745591 -106.577751 290 13990ft 207kts
15-Apr-18 12:03 39.792061 -106.582852 12 13771ft 173kts
15-Apr-18 12:04 39.843548 -106.564052 12 13774ft 201kts
15-Apr-18 12:05 39.873038 -106.516676 123 13780ft 207kts
15-Apr-18 12:06 39.823212 -106.506937 203 13772ft 192kts
15-Apr-18 12:07 39.773566 -106.533597 204 13773ft 194kts
15-Apr-18 12:08 39.725686 -106.557502 199 13763ft 158kts
15-Apr-18 12:09 39.694693 -106.573549 235 12804ft 112kts
15-Apr-18 12:10 39.689415 -106.613097 259 12297ft 128kts
15-Apr-18 12:11 39.681246 -106.657645 249 11606ft 113kts
15-Apr-18 12:12 39.674926 -106.695879 256 10475ft 104kts
15-Apr-18 12:13 39.667253 -106.732241 253 9000ft 103kts
15-Apr-18 12:14 39.661923 -106.766170 257 8149ft 96kts
15-Apr-18 12:15 39.656949 -106.796889 253 7698ft 85kts
15-Apr-18 12:16 39.653287 -106.828537 257 7630ft 85kts
15-Apr-18 12:17 39.649182 -106.860286 255 7181ft 86kts
15-Apr-18 12:18 39.645960 -106.889167 255 6673ft 75kts
15-Apr-18 12:19 39.642998 -106.913960 265 6550ft 30kts
15-Apr-18 12:20 39.641720 -106.917505 165 6550ft 0kts
15-Apr-18 12:21 39.640257 -106.916514 178 6550ft 0kts
15-Apr-18 12:22 39.640257 -106.916514 178 6550ft 0kts
15-Apr-18 12:23 39.640257 -106.916514 178 6550ft 0kts
15-Apr-18 12:24 39.640257 -106.916514 178 6550ft 0kts
15-Apr-18 12:25 39.640258 -106.916514 178 6550ft 0kts

Navigation Log

Ident Type
Flight plan parsing failed, navigation log unavailable